sensor_id;sensor_type;location;lat;lon;timestamp;temperature;humidity
20200;DHT22;36284;37.236;-121.934;2022-07-19T00:02:12;33.20;86.60
20200;DHT22;36284;37.236;-121.934;2022-07-19T00:04:38;33.20;86.60
20200;DHT22;36284;37.236;-121.934;2022-07-19T00:07:05;33.60;86.80
20200;DHT22;36284;37.236;-121.934;2022-07-19T00:09:32;33.30;86.60
20200;DHT22;36284;37.236;-121.934;2022-07-19T00:11:59;33.30;86.10
20200;DHT22;36284;37.236;-121.934;2022-07-19T00:14:26;33.40;84.80
20200;DHT22;36284;37.236;-121.934;2022-07-19T00:16:53;33.50;83.90
20200;DHT22;36284;37.236;-121.934;2022-07-19T00:19:20;33.60;83.00
20200;DHT22;36284;37.236;-121.934;2022-07-19T00:21:47;33.70;83.20
20200;DHT22;36284;37.236;-121.934;2022-07-19T00:24:14;33.70;83.00
20200;DHT22;36284;37.236;-121.934;2022-07-19T00:26:41;33.40;84.00
20200;DHT22;36284;37.236;-121.934;2022-07-19T00:29:07;33.60;84.80
20200;DHT22;36284;37.236;-121.934;2022-07-19T00:31:34;33.40;84.50
20200;DHT22;36284;37.236;-121.934;2022-07-19T00:34:01;33.30;83.10
20200;DHT22;36284;37.236;-121.934;2022-07-19T00:36:28;33.00;83.80
20200;DHT22;36284;37.236;-121.934;2022-07-19T00:38:55;33.10;85.20
20200;DHT22;36284;37.236;-121.934;2022-07-19T00:41:22;33.00;83.50
20200;DHT22;36284;37.236;-121.934;2022-07-19T00:43:49;32.70;83.50
20200;DHT22;36284;37.236;-121.934;2022-07-19T00:46:19;32.70;83.50
20200;DHT22;36284;37.236;-121.934;2022-07-19T00:48:47;31.70;84.20
20200;DHT22;36284;37.236;-121.934;2022-07-19T00:51:16;31.70;85.60
20200;DHT22;36284;37.236;-121.934;2022-07-19T00:53:43;31.90;85.80
20200;DHT22;36284;37.236;-121.934;2022-07-19T00:56:12;32.00;87.70
20200;DHT22;36284;37.236;-121.934;2022-07-19T00:58:42;31.80;89.00
20200;DHT22;36284;37.236;-121.934;2022-07-19T01:01:09;30.90;90.50
20200;DHT22;36284;37.236;-121.934;2022-07-19T01:03:39;30.30;90.80
20200;DHT22;36284;37.236;-121.934;2022-07-19T01:06:08;30.20;90.60
20200;DHT22;36284;37.236;-121.934;2022-07-19T01:08:36;30.00;90.80
20200;DHT22;36284;37.236;-121.934;2022-07-19T01:11:05;29.90;90.40
20200;DHT22;36284;37.236;-121.934;2022-07-19T01:13:32;29.80;90.60
20200;DHT22;36284;37.236;-121.934;2022-07-19T01:16:00;30.10;90.30
20200;DHT22;36284;37.236;-121.934;2022-07-19T01:18:27;30.10;90.50
20200;DHT22;36284;37.236;-121.934;2022-07-19T01:20:54;30.30;90.50
20200;DHT22;36284;37.236;-121.934;2022-07-19T01:23:21;30.30;90.70
20200;DHT22;36284;37.236;-121.934;2022-07-19T01:25:48;30.30;90.60
20200;DHT22;36284;37.236;-121.934;2022-07-19T01:28:15;30.10;91.00
20200;DHT22;36284;37.236;-121.934;2022-07-19T01:30:42;29.70;92.30
20200;DHT22;36284;37.236;-121.934;2022-07-19T01:33:09;29.70;92.90
20200;DHT22;36284;37.236;-121.934;2022-07-19T01:35:36;29.60;93.60
20200;DHT22;36284;37.236;-121.934;2022-07-19T01:38:03;29.20;94.40
20200;DHT22;36284;37.236;-121.934;2022-07-19T01:40:30;28.90;94.20
20200;DHT22;36284;37.236;-121.934;2022-07-19T01:42:57;29.20;93.10
20200;DHT22;36284;37.236;-121.934;2022-07-19T01:45:24;29.30;91.80
20200;DHT22;36284;37.236;-121.934;2022-07-19T01:47:51;29.30;91.90
20200;DHT22;36284;37.236;-121.934;2022-07-19T01:50:18;29.10;91.70
20200;DHT22;36284;37.236;-121.934;2022-07-19T01:52:45;28.80;92.50
20200;DHT22;36284;37.236;-121.934;2022-07-19T01:55:12;28.80;92.60
20200;DHT22;36284;37.236;-121.934;2022-07-19T01:57:39;28.40;93.30
20200;DHT22;36284;37.236;-121.934;2022-07-19T02:00:07;28.20;94.20
20200;DHT22;36284;37.236;-121.934;2022-07-19T02:02:34;28.00;95.20
20200;DHT22;36284;37.236;-121.934;2022-07-19T02:05:00;28.00;96.30
20200;DHT22;36284;37.236;-121.934;2022-07-19T02:07:27;28.00;96.40
20200;DHT22;36284;37.236;-121.934;2022-07-19T02:09:56;28.00;96.50
20200;DHT22;36284;37.236;-121.934;2022-07-19T02:12:24;27.80;95.80
20200;DHT22;36284;37.236;-121.934;2022-07-19T02:14:51;27.30;95.90
20200;DHT22;36284;37.236;-121.934;2022-07-19T02:17:18;27.20;96.70
20200;DHT22;36284;37.236;-121.934;2022-07-19T02:19:45;27.20;97.10
20200;DHT22;36284;37.236;-121.934;2022-07-19T02:22:12;27.10;97.50
20200;DHT22;36284;37.236;-121.934;2022-07-19T02:24:38;26.70;98.40
20200;DHT22;36284;37.236;-121.934;2022-07-19T02:27:12;26.30;99.40
20200;DHT22;36284;37.236;-121.934;2022-07-19T02:29:39;26.40;99.70
20200;DHT22;36284;37.236;-121.934;2022-07-19T02:32:06;26.40;99.40
20200;DHT22;36284;37.236;-121.934;2022-07-19T02:34:33;26.50;99.50
20200;DHT22;36284;37.236;-121.934;2022-07-19T02:37:01;26.50;99.90
20200;DHT22;36284;37.236;-121.934;2022-07-19T02:39:28;26.30;99.90
20200;DHT22;36284;37.236;-121.934;2022-07-19T02:41:55;26.30;99.90
20200;DHT22;36284;37.236;-121.934;2022-07-19T02:44:23;25.80;99.90
20200;DHT22;36284;37.236;-121.934;2022-07-19T02:46:50;25.50;99.90
20200;DHT22;36284;37.236;-121.934;2022-07-19T02:49:17;25.50;99.90
20200;DHT22;36284;37.236;-121.934;2022-07-19T02:51:44;25.40;99.90
20200;DHT22;36284;37.236;-121.934;2022-07-19T02:54:11;25.10;99.90
20200;DHT22;36284;37.236;-121.934;2022-07-19T02:56:38;24.90;99.90
20200;DHT22;36284;37.236;-121.934;2022-07-19T02:59:05;25.10;99.90
20200;DHT22;36284;37.236;-121.934;2022-07-19T03:01:32;25.10;99.90
20200;DHT22;36284;37.236;-121.934;2022-07-19T03:03:59;25.10;99.90
20200;DHT22;36284;37.236;-121.934;2022-07-19T03:06:26;25.00;99.90
20200;DHT22;36284;37.236;-121.934;2022-07-19T03:08:53;25.00;99.90
20200;DHT22;36284;37.236;-121.934;2022-07-19T03:11:20;25.00;99.90
20200;DHT22;36284;37.236;-121.934;2022-07-19T03:13:47;24.80;99.90
20200;DHT22;36284;37.236;-121.934;2022-07-19T03:16:14;24.60;99.90
20200;DHT22;36284;37.236;-121.934;2022-07-19T03:18:41;24.60;99.90
20200;DHT22;36284;37.236;-121.934;2022-07-19T03:21:08;24.60;99.90
20200;DHT22;36284;37.236;-121.934;2022-07-19T03:23:36;24.50;99.90
20200;DHT22;36284;37.236;-121.934;2022-07-19T03:26:05;24.40;99.90
20200;DHT22;36284;37.236;-121.934;2022-07-19T03:28:33;24.30;99.90
20200;DHT22;36284;37.236;-121.934;2022-07-19T03:31:00;24.00;99.90
20200;DHT22;36284;37.236;-121.934;2022-07-19T03:33:27;23.90;99.90
20200;DHT22;36284;37.236;-121.934;2022-07-19T03:35:54;23.80;99.90
20200;DHT22;36284;37.236;-121.934;2022-07-19T03:38:21;23.60;99.90
20200;DHT22;36284;37.236;-121.934;2022-07-19T03:40:48;23.50;99.90
20200;DHT22;36284;37.236;-121.934;2022-07-19T03:43:16;23.40;99.90
20200;DHT22;36284;37.236;-121.934;2022-07-19T03:45:44;23.40;99.90
20200;DHT22;36284;37.236;-121.934;2022-07-19T03:48:11;23.30;99.90
20200;DHT22;36284;37.236;-121.934;2022-07-19T03:50:39;23.30;99.90
20200;DHT22;36284;37.236;-121.934;2022-07-19T03:53:06;23.10;99.90
20200;DHT22;36284;37.236;-121.934;2022-07-19T03:55:34;23.10;99.90
20200;DHT22;36284;37.236;-121.934;2022-07-19T03:58:01;22.90;99.90
20200;DHT22;36284;37.236;-121.934;2022-07-19T04:00:28;22.90;99.90
20200;DHT22;36284;37.236;-121.934;2022-07-19T04:02:55;23.00;99.90
20200;DHT22;36284;37.236;-121.934;2022-07-19T04:05:22;22.90;99.90
20200;DHT22;36284;37.236;-121.934;2022-07-19T04:07:49;22.90;99.90
20200;DHT22;36284;37.236;-121.934;2022-07-19T04:10:16;22.70;99.90
20200;DHT22;36284;37.236;-121.934;2022-07-19T04:12:43;22.60;99.90
20200;DHT22;36284;37.236;-121.934;2022-07-19T04:15:10;22.70;99.90
20200;DHT22;36284;37.236;-121.934;2022-07-19T04:17:37;22.70;99.90
20200;DHT22;36284;37.236;-121.934;2022-07-19T04:20:04;22.70;99.90
20200;DHT22;36284;37.236;-121.934;2022-07-19T04:22:34;22.60;99.90
20200;DHT22;36284;37.236;-121.934;2022-07-19T04:25:01;22.50;99.90
20200;DHT22;36284;37.236;-121.934;2022-07-19T04:27:31;22.40;99.90
20200;DHT22;36284;37.236;-121.934;2022-07-19T04:29:58;22.40;99.90
20200;DHT22;36284;37.236;-121.934;2022-07-19T04:32:25;22.30;99.90
20200;DHT22;36284;37.236;-121.934;2022-07-19T04:34:52;22.20;99.90
20200;DHT22;36284;37.236;-121.934;2022-07-19T04:37:19;22.10;99.90
20200;DHT22;36284;37.236;-121.934;2022-07-19T04:39:46;22.10;99.90
20200;DHT22;36284;37.236;-121.934;2022-07-19T04:42:13;22.10;99.90
20200;DHT22;36284;37.236;-121.934;2022-07-19T04:44:40;22.00;99.90
20200;DHT22;36284;37.236;-121.934;2022-07-19T04:47:06;21.90;99.90
20200;DHT22;36284;37.236;-121.934;2022-07-19T04:49:33;21.90;99.90
20200;DHT22;36284;37.236;-121.934;2022-07-19T04:52:01;21.90;99.90
20200;DHT22;36284;37.236;-121.934;2022-07-19T04:54:27;21.80;99.90
20200;DHT22;36284;37.236;-121.934;2022-07-19T04:56:55;21.70;99.90
20200;DHT22;36284;37.236;-121.934;2022-07-19T04:59:22;21.70;99.90
20200;DHT22;36284;37.236;-121.934;2022-07-19T05:01:49;21.50;99.90
20200;DHT22;36284;37.236;-121.934;2022-07-19T05:04:16;21.50;99.90
20200;DHT22;36284;37.236;-121.934;2022-07-19T05:06:43;21.40;99.90
20200;DHT22;36284;37.236;-121.934;2022-07-19T05:09:11;21.40;99.90
20200;DHT22;36284;37.236;-121.934;2022-07-19T05:11:38;21.30;99.90
20200;DHT22;36284;37.236;-121.934;2022-07-19T05:14:05;21.20;99.90
20200;DHT22;36284;37.236;-121.934;2022-07-19T05:16:31;21.10;99.90
20200;DHT22;36284;37.236;-121.934;2022-07-19T05:18:58;21.00;99.90
20200;DHT22;36284;37.236;-121.934;2022-07-19T05:21:25;20.90;99.90
20200;DHT22;36284;37.236;-121.934;2022-07-19T05:23:52;20.90;99.90
20200;DHT22;36284;37.236;-121.934;2022-07-19T05:26:19;20.80;99.90
20200;DHT22;36284;37.236;-121.934;2022-07-19T05:28:46;20.60;99.90
20200;DHT22;36284;37.236;-121.934;2022-07-19T05:31:13;20.60;99.90
20200;DHT22;36284;37.236;-121.934;2022-07-19T05:33:40;20.60;99.90
20200;DHT22;36284;37.236;-121.934;2022-07-19T05:36:07;20.60;99.90
20200;DHT22;36284;37.236;-121.934;2022-07-19T05:38:38;20.50;99.90
20200;DHT22;36284;37.236;-121.934;2022-07-19T05:41:06;20.40;99.90
20200;DHT22;36284;37.236;-121.934;2022-07-19T05:43:35;20.40;99.90
20200;DHT22;36284;37.236;-121.934;2022-07-19T05:46:02;20.30;99.90
20200;DHT22;36284;37.236;-121.934;2022-07-19T05:48:29;20.20;99.90
20200;DHT22;36284;37.236;-121.934;2022-07-19T05:50:57;20.20;99.90
20200;DHT22;36284;37.236;-121.934;2022-07-19T05:53:25;20.20;99.90
20200;DHT22;36284;37.236;-121.934;2022-07-19T05:55:52;20.10;99.90
20200;DHT22;36284;37.236;-121.934;2022-07-19T05:58:19;20.10;99.90
20200;DHT22;36284;37.236;-121.934;2022-07-19T06:00:46;20.10;99.90
20200;DHT22;36284;37.236;-121.934;2022-07-19T06:03:32;20.00;99.90
20200;DHT22;36284;37.236;-121.934;2022-07-19T06:05:59;20.00;99.90
20200;DHT22;36284;37.236;-121.934;2022-07-19T06:08:26;19.90;99.90
20200;DHT22;36284;37.236;-121.934;2022-07-19T06:10:53;19.90;99.90
20200;DHT22;36284;37.236;-121.934;2022-07-19T06:13:20;19.80;99.90
20200;DHT22;36284;37.236;-121.934;2022-07-19T06:15:47;19.80;99.90
20200;DHT22;36284;37.236;-121.934;2022-07-19T06:18:14;19.70;99.90
20200;DHT22;36284;37.236;-121.934;2022-07-19T06:20:41;19.70;99.90
20200;DHT22;36284;37.236;-121.934;2022-07-19T06:23:08;19.60;99.90
20200;DHT22;36284;37.236;-121.934;2022-07-19T06:25:35;19.60;99.90
20200;DHT22;36284;37.236;-121.934;2022-07-19T06:28:02;19.60;99.90
20200;DHT22;36284;37.236;-121.934;2022-07-19T06:30:29;19.50;99.90
20200;DHT22;36284;37.236;-121.934;2022-07-19T06:32:56;19.40;99.90
20200;DHT22;36284;37.236;-121.934;2022-07-19T06:35:23;19.30;99.90
20200;DHT22;36284;37.236;-121.934;2022-07-19T06:37:51;19.40;99.90
20200;DHT22;36284;37.236;-121.934;2022-07-19T06:40:17;19.40;99.90
20200;DHT22;36284;37.236;-121.934;2022-07-19T06:42:44;19.30;99.90
20200;DHT22;36284;37.236;-121.934;2022-07-19T06:45:11;19.20;99.90
20200;DHT22;36284;37.236;-121.934;2022-07-19T06:47:38;19.20;99.90
20200;DHT22;36284;37.236;-121.934;2022-07-19T06:50:06;19.20;99.90
20200;DHT22;36284;37.236;-121.934;2022-07-19T06:52:33;19.10;99.90
20200;DHT22;36284;37.236;-121.934;2022-07-19T06:55:00;19.10;99.90
20200;DHT22;36284;37.236;-121.934;2022-07-19T06:57:27;19.00;99.90
20200;DHT22;36284;37.236;-121.934;2022-07-19T06:59:54;19.00;99.90
20200;DHT22;36284;37.236;-121.934;2022-07-19T07:02:21;18.90;99.90
20200;DHT22;36284;37.236;-121.934;2022-07-19T07:04:47;18.90;99.90
20200;DHT22;36284;37.236;-121.934;2022-07-19T07:07:14;18.90;99.90
20200;DHT22;36284;37.236;-121.934;2022-07-19T07:09:42;18.80;99.90
20200;DHT22;36284;37.236;-121.934;2022-07-19T07:12:09;18.70;99.90
20200;DHT22;36284;37.236;-121.934;2022-07-19T07:14:36;18.80;99.90
20200;DHT22;36284;37.236;-121.934;2022-07-19T07:17:03;18.90;99.90
20200;DHT22;36284;37.236;-121.934;2022-07-19T07:19:30;18.90;99.90
20200;DHT22;36284;37.236;-121.934;2022-07-19T07:21:57;18.90;99.90
20200;DHT22;36284;37.236;-121.934;2022-07-19T07:24:26;18.70;99.90
20200;DHT22;36284;37.236;-121.934;2022-07-19T07:26:53;18.60;99.90
20200;DHT22;36284;37.236;-121.934;2022-07-19T07:29:20;18.50;99.90
20200;DHT22;36284;37.236;-121.934;2022-07-19T07:31:47;18.50;99.90
20200;DHT22;36284;37.236;-121.934;2022-07-19T07:34:14;18.40;99.90
20200;DHT22;36284;37.236;-121.934;2022-07-19T07:36:41;18.50;99.90
20200;DHT22;36284;37.236;-121.934;2022-07-19T07:39:08;18.40;99.90
20200;DHT22;36284;37.236;-121.934;2022-07-19T07:41:35;18.40;99.90
20200;DHT22;36284;37.236;-121.934;2022-07-19T07:44:02;18.40;99.90
20200;DHT22;36284;37.236;-121.934;2022-07-19T07:46:29;18.20;99.90
20200;DHT22;36284;37.236;-121.934;2022-07-19T07:48:55;18.20;99.90
20200;DHT22;36284;37.236;-121.934;2022-07-19T07:51:23;18.10;99.90
20200;DHT22;36284;37.236;-121.934;2022-07-19T07:53:50;18.00;99.90
20200;DHT22;36284;37.236;-121.934;2022-07-19T07:56:16;18.00;99.90
20200;DHT22;36284;37.236;-121.934;2022-07-19T07:58:43;17.90;99.90
20200;DHT22;36284;37.236;-121.934;2022-07-19T08:01:10;17.80;99.90
20200;DHT22;36284;37.236;-121.934;2022-07-19T08:03:37;17.80;99.90
20200;DHT22;36284;37.236;-121.934;2022-07-19T08:06:04;17.80;99.90
20200;DHT22;36284;37.236;-121.934;2022-07-19T08:08:31;17.80;99.90
20200;DHT22;36284;37.236;-121.934;2022-07-19T08:10:58;17.70;99.90
20200;DHT22;36284;37.236;-121.934;2022-07-19T08:13:25;17.60;99.90
20200;DHT22;36284;37.236;-121.934;2022-07-19T08:15:52;17.60;99.90
20200;DHT22;36284;37.236;-121.934;2022-07-19T08:18:19;17.60;99.90
20200;DHT22;36284;37.236;-121.934;2022-07-19T08:20:46;17.60;99.90
20200;DHT22;36284;37.236;-121.934;2022-07-19T08:23:13;17.50;99.90
20200;DHT22;36284;37.236;-121.934;2022-07-19T08:25:40;17.50;99.90
20200;DHT22;36284;37.236;-121.934;2022-07-19T08:28:07;17.40;99.90
20200;DHT22;36284;37.236;-121.934;2022-07-19T08:30:33;17.40;99.90
20200;DHT22;36284;37.236;-121.934;2022-07-19T08:33:01;17.40;99.90
20200;DHT22;36284;37.236;-121.934;2022-07-19T08:35:29;17.40;99.90
20200;DHT22;36284;37.236;-121.934;2022-07-19T08:37:55;17.40;99.90
20200;DHT22;36284;37.236;-121.934;2022-07-19T08:40:22;17.30;99.90
20200;DHT22;36284;37.236;-121.934;2022-07-19T08:42:50;17.30;99.90
20200;DHT22;36284;37.236;-121.934;2022-07-19T08:45:18;17.30;99.90
20200;DHT22;36284;37.236;-121.934;2022-07-19T08:47:49;17.20;99.90
20200;DHT22;36284;37.236;-121.934;2022-07-19T08:50:16;17.20;99.90
20200;DHT22;36284;37.236;-121.934;2022-07-19T08:52:43;17.30;99.90
20200;DHT22;36284;37.236;-121.934;2022-07-19T08:55:10;17.10;99.90
20200;DHT22;36284;37.236;-121.934;2022-07-19T08:57:37;17.10;99.90
20200;DHT22;36284;37.236;-121.934;2022-07-19T09:00:23;17.10;99.90
20200;DHT22;36284;37.236;-121.934;2022-07-19T09:02:55;17.00;99.90
20200;DHT22;36284;37.236;-121.934;2022-07-19T09:05:23;17.00;99.90
20200;DHT22;36284;37.236;-121.934;2022-07-19T09:08:09;17.00;99.90
20200;DHT22;36284;37.236;-121.934;2022-07-19T09:10:39;16.90;99.90
20200;DHT22;36284;37.236;-121.934;2022-07-19T09:13:08;16.90;99.90
20200;DHT22;36284;37.236;-121.934;2022-07-19T09:15:48;16.90;99.90
20200;DHT22;36284;37.236;-121.934;2022-07-19T09:18:26;16.80;99.90
20200;DHT22;36284;37.236;-121.934;2022-07-19T09:20:59;16.80;99.90
20200;DHT22;36284;37.236;-121.934;2022-07-19T09:23:27;16.70;99.90
20200;DHT22;36284;37.236;-121.934;2022-07-19T09:26:00;16.70;99.90
20200;DHT22;36284;37.236;-121.934;2022-07-19T09:28:28;16.60;99.90
20200;DHT22;36284;37.236;-121.934;2022-07-19T09:30:59;16.60;99.90
20200;DHT22;36284;37.236;-121.934;2022-07-19T09:33:31;16.60;99.90
20200;DHT22;36284;37.236;-121.934;2022-07-19T09:36:00;16.60;99.90
20200;DHT22;36284;37.236;-121.934;2022-07-19T09:38:35;16.50;99.90
20200;DHT22;36284;37.236;-121.934;2022-07-19T09:41:12;16.50;99.90
20200;DHT22;36284;37.236;-121.934;2022-07-19T09:44:02;16.50;99.90
20200;DHT22;36284;37.236;-121.934;2022-07-19T09:46:37;16.40;99.90
20200;DHT22;36284;37.236;-121.934;2022-07-19T09:49:06;16.40;99.90
20200;DHT22;36284;37.236;-121.934;2022-07-19T09:51:39;16.40;99.90
20200;DHT22;36284;37.236;-121.934;2022-07-19T09:54:08;16.40;99.90
20200;DHT22;36284;37.236;-121.934;2022-07-19T09:56:37;16.30;99.90
20200;DHT22;36284;37.236;-121.934;2022-07-19T09:59:05;16.20;99.90
20200;DHT22;36284;37.236;-121.934;2022-07-19T10:01:32;16.20;99.90
20200;DHT22;36284;37.236;-121.934;2022-07-19T10:04:20;16.20;99.90
20200;DHT22;36284;37.236;-121.934;2022-07-19T10:06:49;16.10;99.90
20200;DHT22;36284;37.236;-121.934;2022-07-19T10:09:19;16.10;99.90
20200;DHT22;36284;37.236;-121.934;2022-07-19T10:11:46;16.10;99.90
20200;DHT22;36284;37.236;-121.934;2022-07-19T10:14:13;16.20;99.90
20200;DHT22;36284;37.236;-121.934;2022-07-19T10:19:41;16.00;99.90
20200;DHT22;36284;37.236;-121.934;2022-07-19T10:22:13;16.00;99.90
20200;DHT22;36284;37.236;-121.934;2022-07-19T10:27:12;15.90;99.90
20200;DHT22;36284;37.236;-121.934;2022-07-19T10:29:40;15.90;99.90
20200;DHT22;36284;37.236;-121.934;2022-07-19T10:32:12;15.80;99.90
20200;DHT22;36284;37.236;-121.934;2022-07-19T10:34:39;15.70;99.90
20200;DHT22;36284;37.236;-121.934;2022-07-19T10:37:07;15.70;99.90
20200;DHT22;36284;37.236;-121.934;2022-07-19T10:39:36;15.80;99.90
20200;DHT22;36284;37.236;-121.934;2022-07-19T10:42:14;15.70;99.90
20200;DHT22;36284;37.236;-121.934;2022-07-19T10:50:08;15.70;99.90
20200;DHT22;36284;37.236;-121.934;2022-07-19T10:52:37;15.60;99.90
20200;DHT22;36284;37.236;-121.934;2022-07-19T10:58:10;15.50;99.90
20200;DHT22;36284;37.236;-121.934;2022-07-19T11:05:58;15.50;99.90
20200;DHT22;36284;37.236;-121.934;2022-07-19T11:08:43;15.50;99.90
20200;DHT22;36284;37.236;-121.934;2022-07-19T11:11:15;15.40;99.90
20200;DHT22;36284;37.236;-121.934;2022-07-19T11:13:45;15.40;99.90
20200;DHT22;36284;37.236;-121.934;2022-07-19T11:16:13;15.50;99.90
20200;DHT22;36284;37.236;-121.934;2022-07-19T11:18:40;15.40;99.90
20200;DHT22;36284;37.236;-121.934;2022-07-19T11:21:10;15.30;99.90
20200;DHT22;36284;37.236;-121.934;2022-07-19T11:23:39;15.30;99.90
20200;DHT22;36284;37.236;-121.934;2022-07-19T11:26:17;15.30;99.90
20200;DHT22;36284;37.236;-121.934;2022-07-19T11:28:47;15.20;99.90
20200;DHT22;36284;37.236;-121.934;2022-07-19T11:31:22;15.30;99.90
20200;DHT22;36284;37.236;-121.934;2022-07-19T11:33:51;15.20;99.90
20200;DHT22;36284;37.236;-121.934;2022-07-19T11:36:20;15.20;99.90
20200;DHT22;36284;37.236;-121.934;2022-07-19T11:38:52;15.10;99.90
20200;DHT22;36284;37.236;-121.934;2022-07-19T11:41:22;15.10;99.90
20200;DHT22;36284;37.236;-121.934;2022-07-19T11:46:21;15.10;99.90
20200;DHT22;36284;37.236;-121.934;2022-07-19T11:48:49;15.10;99.90
20200;DHT22;36284;37.236;-121.934;2022-07-19T11:51:21;15.10;99.90
20200;DHT22;36284;37.236;-121.934;2022-07-19T11:53:50;15.10;99.90
20200;DHT22;36284;37.236;-121.934;2022-07-19T11:56:28;15.10;99.90
20200;DHT22;36284;37.236;-121.934;2022-07-19T11:58:58;15.00;99.90
20200;DHT22;36284;37.236;-121.934;2022-07-19T12:01:34;15.00;99.90
20200;DHT22;36284;37.236;-121.934;2022-07-19T12:04:04;15.00;99.90
20200;DHT22;36284;37.236;-121.934;2022-07-19T12:06:50;14.90;99.90
20200;DHT22;36284;37.236;-121.934;2022-07-19T12:09:25;14.90;99.90
20200;DHT22;36284;37.236;-121.934;2022-07-19T12:11:54;15.00;99.90
20200;DHT22;36284;37.236;-121.934;2022-07-19T12:14:29;15.00;99.90
20200;DHT22;36284;37.236;-121.934;2022-07-19T12:17:19;15.00;99.90
20200;DHT22;36284;37.236;-121.934;2022-07-19T12:22:28;14.90;99.90
20200;DHT22;36284;37.236;-121.934;2022-07-19T12:24:55;14.90;99.90
20200;DHT22;36284;37.236;-121.934;2022-07-19T12:27:22;14.80;99.90
20200;DHT22;36284;37.236;-121.934;2022-07-19T12:29:55;14.90;99.90
20200;DHT22;36284;37.236;-121.934;2022-07-19T12:32:38;14.80;99.90
20200;DHT22;36284;37.236;-121.934;2022-07-19T12:35:13;14.80;99.90
20200;DHT22;36284;37.236;-121.934;2022-07-19T12:37:46;14.80;99.90
20200;DHT22;36284;37.236;-121.934;2022-07-19T12:40:23;14.70;99.90
20200;DHT22;36284;37.236;-121.934;2022-07-19T12:42:55;14.70;99.90
20200;DHT22;36284;37.236;-121.934;2022-07-19T12:45:36;14.80;99.90
20200;DHT22;36284;37.236;-121.934;2022-07-19T12:48:06;14.70;99.90
20200;DHT22;36284;37.236;-121.934;2022-07-19T12:50:35;14.70;99.90
20200;DHT22;36284;37.236;-121.934;2022-07-19T12:53:05;14.70;99.90
20200;DHT22;36284;37.236;-121.934;2022-07-19T12:55:34;14.70;99.90
20200;DHT22;36284;37.236;-121.934;2022-07-19T12:58:03;14.70;99.90
20200;DHT22;36284;37.236;-121.934;2022-07-19T13:00:31;14.70;99.90
20200;DHT22;36284;37.236;-121.934;2022-07-19T13:02:59;14.70;99.90
20200;DHT22;36284;37.236;-121.934;2022-07-19T13:05:28;14.70;99.90
20200;DHT22;36284;37.236;-121.934;2022-07-19T13:07:55;14.60;99.90
20200;DHT22;36284;37.236;-121.934;2022-07-19T13:10:24;14.60;99.90
20200;DHT22;36284;37.236;-121.934;2022-07-19T13:12:51;14.50;99.90
20200;DHT22;36284;37.236;-121.934;2022-07-19T13:15:18;14.50;99.90
20200;DHT22;36284;37.236;-121.934;2022-07-19T13:17:46;14.60;99.90
20200;DHT22;36284;37.236;-121.934;2022-07-19T13:20:13;14.50;99.90
20200;DHT22;36284;37.236;-121.934;2022-07-19T13:22:41;14.50;99.90
20200;DHT22;36284;37.236;-121.934;2022-07-19T13:25:09;14.50;99.90
20200;DHT22;36284;37.236;-121.934;2022-07-19T13:27:39;14.50;99.90
20200;DHT22;36284;37.236;-121.934;2022-07-19T13:30:07;14.60;99.90
20200;DHT22;36284;37.236;-121.934;2022-07-19T13:32:34;14.70;99.90
20200;DHT22;36284;37.236;-121.934;2022-07-19T13:35:01;14.80;99.90
20200;DHT22;36284;37.236;-121.934;2022-07-19T13:37:28;14.80;99.90
20200;DHT22;36284;37.236;-121.934;2022-07-19T13:39:55;14.90;99.90
20200;DHT22;36284;37.236;-121.934;2022-07-19T13:42:22;15.00;99.90
20200;DHT22;36284;37.236;-121.934;2022-07-19T13:44:49;15.10;99.90
20200;DHT22;36284;37.236;-121.934;2022-07-19T13:47:16;15.30;99.90
20200;DHT22;36284;37.236;-121.934;2022-07-19T13:49:43;15.40;99.90
20200;DHT22;36284;37.236;-121.934;2022-07-19T13:52:10;15.50;99.90
20200;DHT22;36284;37.236;-121.934;2022-07-19T13:54:37;15.60;99.90
20200;DHT22;36284;37.236;-121.934;2022-07-19T13:57:04;15.80;99.90
20200;DHT22;36284;37.236;-121.934;2022-07-19T13:59:31;16.30;99.90
20200;DHT22;36284;37.236;-121.934;2022-07-19T14:02:00;16.90;99.90
20200;DHT22;36284;37.236;-121.934;2022-07-19T14:04:27;17.10;99.90
20200;DHT22;36284;37.236;-121.934;2022-07-19T14:06:54;17.20;99.90
20200;DHT22;36284;37.236;-121.934;2022-07-19T14:09:21;17.30;99.90
20200;DHT22;36284;37.236;-121.934;2022-07-19T14:11:48;17.60;99.90
20200;DHT22;36284;37.236;-121.934;2022-07-19T14:14:15;18.00;99.90
20200;DHT22;36284;37.236;-121.934;2022-07-19T14:16:41;18.20;99.90
20200;DHT22;36284;37.236;-121.934;2022-07-19T14:19:09;18.80;99.90
20200;DHT22;36284;37.236;-121.934;2022-07-19T14:21:36;20.10;99.90
20200;DHT22;36284;37.236;-121.934;2022-07-19T14:24:03;20.80;99.90
20200;DHT22;36284;37.236;-121.934;2022-07-19T14:26:30;21.40;99.90
20200;DHT22;36284;37.236;-121.934;2022-07-19T14:28:57;21.80;99.90
20200;DHT22;36284;37.236;-121.934;2022-07-19T14:31:24;21.60;99.90
20200;DHT22;36284;37.236;-121.934;2022-07-19T14:33:51;22.10;99.90
20200;DHT22;36284;37.236;-121.934;2022-07-19T14:36:18;22.60;99.90
20200;DHT22;36284;37.236;-121.934;2022-07-19T14:38:45;23.10;99.90
20200;DHT22;36284;37.236;-121.934;2022-07-19T14:41:12;23.30;99.90
20200;DHT22;36284;37.236;-121.934;2022-07-19T14:43:39;23.90;99.90
20200;DHT22;36284;37.236;-121.934;2022-07-19T14:46:06;23.20;99.90
20200;DHT22;36284;37.236;-121.934;2022-07-19T14:48:33;22.60;99.90
20200;DHT22;36284;37.236;-121.934;2022-07-19T14:51:01;22.80;99.90
20200;DHT22;36284;37.236;-121.934;2022-07-19T14:53:28;22.80;99.90
20200;DHT22;36284;37.236;-121.934;2022-07-19T14:55:55;22.70;99.90
20200;DHT22;36284;37.236;-121.934;2022-07-19T14:58:22;22.40;99.90
20200;DHT22;36284;37.236;-121.934;2022-07-19T15:00:49;22.00;99.90
20200;DHT22;36284;37.236;-121.934;2022-07-19T15:03:16;21.90;99.90
20200;DHT22;36284;37.236;-121.934;2022-07-19T15:05:43;22.90;99.90
20200;DHT22;36284;37.236;-121.934;2022-07-19T15:08:10;23.00;99.90
20200;DHT22;36284;37.236;-121.934;2022-07-19T15:10:37;23.30;99.90
20200;DHT22;36284;37.236;-121.934;2022-07-19T15:13:04;23.00;99.90
20200;DHT22;36284;37.236;-121.934;2022-07-19T15:15:32;22.90;99.90
20200;DHT22;36284;37.236;-121.934;2022-07-19T15:17:59;22.70;99.90
20200;DHT22;36284;37.236;-121.934;2022-07-19T15:20:26;23.10;99.90